sensor_id;sensor_type;location;lat;lon;timestamp;temperature;humidity
15407;DHT22;7802;51.568;6.364;2022-08-01T00:01:55;19.80;99.90
15407;DHT22;7802;51.568;6.364;2022-08-01T00:04:43;19.80;99.90
15407;DHT22;7802;51.568;6.364;2022-08-01T00:07:32;19.80;99.90
15407;DHT22;7802;51.568;6.364;2022-08-01T00:10:22;19.80;99.90
15407;DHT22;7802;51.568;6.364;2022-08-01T00:13:11;19.80;99.90
15407;DHT22;7802;51.568;6.364;2022-08-01T00:15:59;19.80;99.90
15407;DHT22;7802;51.568;6.364;2022-08-01T00:18:48;19.80;99.90
15407;DHT22;7802;51.568;6.364;2022-08-01T00:21:37;19.80;99.90
15407;DHT22;7802;51.568;6.364;2022-08-01T00:24:38;19.80;99.90
15407;DHT22;7802;51.568;6.364;2022-08-01T00:27:28;19.80;99.90
15407;DHT22;7802;51.568;6.364;2022-08-01T00:30:17;19.80;99.90
15407;DHT22;7802;51.568;6.364;2022-08-01T00:33:05;19.70;99.90
15407;DHT22;7802;51.568;6.364;2022-08-01T00:35:54;19.70;99.90
15407;DHT22;7802;51.568;6.364;2022-08-01T00:38:43;19.70;99.90
15407;DHT22;7802;51.568;6.364;2022-08-01T00:41:31;19.60;99.90
15407;DHT22;7802;51.568;6.364;2022-08-01T00:44:22;19.60;99.90
15407;DHT22;7802;51.568;6.364;2022-08-01T00:47:10;19.70;99.90
15407;DHT22;7802;51.568;6.364;2022-08-01T00:49:58;19.70;99.90
15407;DHT22;7802;51.568;6.364;2022-08-01T00:52:48;19.60;99.90
15407;DHT22;7802;51.568;6.364;2022-08-01T00:55:37;19.70;99.90
15407;DHT22;7802;51.568;6.364;2022-08-01T00:58:27;19.70;99.90
15407;DHT22;7802;51.568;6.364;2022-08-01T01:01:20;19.60;99.90
15407;DHT22;7802;51.568;6.364;2022-08-01T01:04:15;19.70;99.90
15407;DHT22;7802;51.568;6.364;2022-08-01T01:07:08;19.70;99.90
15407;DHT22;7802;51.568;6.364;2022-08-01T01:10:02;19.70;99.90
15407;DHT22;7802;51.568;6.364;2022-08-01T01:12:59;19.70;99.90
15407;DHT22;7802;51.568;6.364;2022-08-01T01:15:53;19.70;99.90
15407;DHT22;7802;51.568;6.364;2022-08-01T01:18:46;19.70;99.90
15407;DHT22;7802;51.568;6.364;2022-08-01T01:21:47;20.00;99.90
15407;DHT22;7802;51.568;6.364;2022-08-01T01:24:47;19.70;99.90
15407;DHT22;7802;51.568;6.364;2022-08-01T01:27:45;19.70;99.90
15407;DHT22;7802;51.568;6.364;2022-08-01T01:30:38;19.70;99.90
15407;DHT22;7802;51.568;6.364;2022-08-01T01:33:32;19.70;99.90
15407;DHT22;7802;51.568;6.364;2022-08-01T01:36:32;19.70;99.90
15407;DHT22;7802;51.568;6.364;2022-08-01T01:39:22;19.70;99.90
15407;DHT22;7802;51.568;6.364;2022-08-01T01:42:13;19.70;99.90
15407;DHT22;7802;51.568;6.364;2022-08-01T01:45:05;19.70;99.90
15407;DHT22;7802;51.568;6.364;2022-08-01T01:47:57;19.70;99.90
15407;DHT22;7802;51.568;6.364;2022-08-01T01:50:47;19.70;99.90
15407;DHT22;7802;51.568;6.364;2022-08-01T01:53:36;19.70;99.90
15407;DHT22;7802;51.568;6.364;2022-08-01T01:56:27;19.70;99.90
15407;DHT22;7802;51.568;6.364;2022-08-01T01:59:20;19.70;99.90
15407;DHT22;7802;51.568;6.364;2022-08-01T02:02:12;19.70;99.90
15407;DHT22;7802;51.568;6.364;2022-08-01T02:05:05;19.60;99.90
15407;DHT22;7802;51.568;6.364;2022-08-01T02:07:55;19.70;99.90
15407;DHT22;7802;51.568;6.364;2022-08-01T02:10:46;19.70;99.90
15407;DHT22;7802;51.568;6.364;2022-08-01T02:13:53;19.70;99.90
15407;DHT22;7802;51.568;6.364;2022-08-01T02:16:47;19.70;99.90
15407;DHT22;7802;51.568;6.364;2022-08-01T02:19:36;19.60;99.90
15407;DHT22;7802;51.568;6.364;2022-08-01T02:22:30;19.60;99.90
15407;DHT22;7802;51.568;6.364;2022-08-01T02:25:24;19.60;99.90
15407;DHT22;7802;51.568;6.364;2022-08-01T02:28:16;19.60;99.90
15407;DHT22;7802;51.568;6.364;2022-08-01T02:31:08;19.60;99.90
15407;DHT22;7802;51.568;6.364;2022-08-01T02:34:03;19.60;99.90
15407;DHT22;7802;51.568;6.364;2022-08-01T02:36:55;19.70;99.90
15407;DHT22;7802;51.568;6.364;2022-08-01T02:39:47;19.50;99.90
15407;DHT22;7802;51.568;6.364;2022-08-01T02:42:39;19.50;99.90
15407;DHT22;7802;51.568;6.364;2022-08-01T02:45:32;19.40;99.90
15407;DHT22;7802;51.568;6.364;2022-08-01T02:48:23;19.50;99.90
15407;DHT22;7802;51.568;6.364;2022-08-01T02:51:14;19.50;99.90
15407;DHT22;7802;51.568;6.364;2022-08-01T02:54:07;19.50;99.90
15407;DHT22;7802;51.568;6.364;2022-08-01T02:56:58;19.40;99.90
15407;DHT22;7802;51.568;6.364;2022-08-01T02:59:49;19.40;99.90
15407;DHT22;7802;51.568;6.364;2022-08-01T03:02:43;19.40;99.90
15407;DHT22;7802;51.568;6.364;2022-08-01T03:05:33;19.40;99.90
15407;DHT22;7802;51.568;6.364;2022-08-01T03:08:24;19.40;99.90
15407;DHT22;7802;51.568;6.364;2022-08-01T03:11:13;19.50;99.90
15407;DHT22;7802;51.568;6.364;2022-08-01T03:14:06;19.40;99.90
15407;DHT22;7802;51.568;6.364;2022-08-01T03:16:57;19.30;99.90
15407;DHT22;7802;51.568;6.364;2022-08-01T03:19:48;19.30;99.90
15407;DHT22;7802;51.568;6.364;2022-08-01T03:22:39;19.30;99.90
15407;DHT22;7802;51.568;6.364;2022-08-01T03:25:29;19.30;99.90
15407;DHT22;7802;51.568;6.364;2022-08-01T03:28:20;19.30;99.90
15407;DHT22;7802;51.568;6.364;2022-08-01T03:31:17;19.30;99.90
15407;DHT22;7802;51.568;6.364;2022-08-01T03:34:06;19.30;99.90
15407;DHT22;7802;51.568;6.364;2022-08-01T03:36:57;19.30;99.90
15407;DHT22;7802;51.568;6.364;2022-08-01T03:39:52;19.20;99.90
15407;DHT22;7802;51.568;6.364;2022-08-01T03:42:45;19.20;99.90
15407;DHT22;7802;51.568;6.364;2022-08-01T03:45:36;19.20;99.90
15407;DHT22;7802;51.568;6.364;2022-08-01T03:48:29;19.10;99.90
15407;DHT22;7802;51.568;6.364;2022-08-01T03:51:19;19.20;99.90
15407;DHT22;7802;51.568;6.364;2022-08-01T03:54:10;19.10;99.90
15407;DHT22;7802;51.568;6.364;2022-08-01T03:57:00;19.10;99.90
15407;DHT22;7802;51.568;6.364;2022-08-01T03:59:49;19.10;99.90
15407;DHT22;7802;51.568;6.364;2022-08-01T04:02:38;19.00;99.90
15407;DHT22;7802;51.568;6.364;2022-08-01T04:05:29;19.00;99.90
15407;DHT22;7802;51.568;6.364;2022-08-01T04:08:18;18.90;99.90
15407;DHT22;7802;51.568;6.364;2022-08-01T04:11:08;18.80;99.90
15407;DHT22;7802;51.568;6.364;2022-08-01T04:13:57;19.00;99.90
15407;DHT22;7802;51.568;6.364;2022-08-01T04:16:45;18.90;99.90
15407;DHT22;7802;51.568;6.364;2022-08-01T04:19:34;19.00;99.90
15407;DHT22;7802;51.568;6.364;2022-08-01T04:22:25;19.00;99.90
15407;DHT22;7802;51.568;6.364;2022-08-01T04:25:21;18.90;99.90
15407;DHT22;7802;51.568;6.364;2022-08-01T04:28:10;18.90;99.90
15407;DHT22;7802;51.568;6.364;2022-08-01T04:31:06;18.90;99.90
15407;DHT22;7802;51.568;6.364;2022-08-01T04:33:57;19.00;99.90
15407;DHT22;7802;51.568;6.364;2022-08-01T04:36:47;19.10;99.90
15407;DHT22;7802;51.568;6.364;2022-08-01T04:39:40;19.10;99.90
15407;DHT22;7802;51.568;6.364;2022-08-01T04:42:37;19.40;99.90
15407;DHT22;7802;51.568;6.364;2022-08-01T04:45:28;19.10;99.90
15407;DHT22;7802;51.568;6.364;2022-08-01T04:48:21;19.20;99.90
15407;DHT22;7802;51.568;6.364;2022-08-01T04:51:13;19.20;99.90
15407;DHT22;7802;51.568;6.364;2022-08-01T04:54:03;19.10;99.90
15407;DHT22;7802;51.568;6.364;2022-08-01T04:56:56;19.20;99.90
15407;DHT22;7802;51.568;6.364;2022-08-01T04:59:47;19.20;99.90
15407;DHT22;7802;51.568;6.364;2022-08-01T05:02:37;19.20;99.90
15407;DHT22;7802;51.568;6.364;2022-08-01T05:05:25;19.20;99.90
15407;DHT22;7802;51.568;6.364;2022-08-01T05:08:14;19.20;99.90
15407;DHT22;7802;51.568;6.364;2022-08-01T05:11:03;19.20;99.90
15407;DHT22;7802;51.568;6.364;2022-08-01T05:13:53;19.30;99.90
15407;DHT22;7802;51.568;6.364;2022-08-01T05:16:42;19.40;99.90
15407;DHT22;7802;51.568;6.364;2022-08-01T06:42:39;20.60;99.90
15407;DHT22;7802;51.568;6.364;2022-08-01T06:45:08;20.90;99.90
15407;DHT22;7802;51.568;6.364;2022-08-01T06:47:37;20.90;99.90
15407;DHT22;7802;51.568;6.364;2022-08-01T06:50:08;20.90;99.90
15407;DHT22;7802;51.568;6.364;2022-08-01T06:52:52;21.00;99.90
15407;DHT22;7802;51.568;6.364;2022-08-01T06:55:20;21.00;99.90
15407;DHT22;7802;51.568;6.364;2022-08-01T06:57:51;21.10;99.90
15407;DHT22;7802;51.568;6.364;2022-08-01T07:00:21;21.10;99.90
15407;DHT22;7802;51.568;6.364;2022-08-01T07:02:50;21.40;99.90
15407;DHT22;7802;51.568;6.364;2022-08-01T07:09:37;21.80;99.90
15407;DHT22;7802;51.568;6.364;2022-08-01T07:12:08;21.80;99.90
15407;DHT22;7802;51.568;6.364;2022-08-01T07:14:38;21.70;99.90
15407;DHT22;7802;51.568;6.364;2022-08-01T07:17:06;21.80;99.90
15407;DHT22;7802;51.568;6.364;2022-08-01T07:19:34;21.50;99.90
15407;DHT22;7802;51.568;6.364;2022-08-01T07:22:04;21.80;99.90
15407;DHT22;7802;51.568;6.364;2022-08-01T07:24:33;21.50;99.90
15407;DHT22;7802;51.568;6.364;2022-08-01T07:27:01;21.40;99.90
15407;DHT22;7802;51.568;6.364;2022-08-01T07:29:51;21.40;99.90
15407;DHT22;7802;51.568;6.364;2022-08-01T07:32:20;21.60;99.90
15407;DHT22;7802;51.568;6.364;2022-08-01T07:34:48;21.70;99.90
15407;DHT22;7802;51.568;6.364;2022-08-01T07:37:16;21.70;99.90
15407;DHT22;7802;51.568;6.364;2022-08-01T07:40:06;21.50;99.90
15407;DHT22;7802;51.568;6.364;2022-08-01T07:42:35;21.40;99.90
15407;DHT22;7802;51.568;6.364;2022-08-01T07:45:05;21.40;99.90
15407;DHT22;7802;51.568;6.364;2022-08-01T07:47:33;21.40;99.90
15407;DHT22;7802;51.568;6.364;2022-08-01T07:50:03;21.40;99.90
15407;DHT22;7802;51.568;6.364;2022-08-01T07:52:31;21.60;99.90
15407;DHT22;7802;51.568;6.364;2022-08-01T07:54:59;21.90;99.90
15407;DHT22;7802;51.568;6.364;2022-08-01T07:57:28;21.90;99.90
15407;DHT22;7802;51.568;6.364;2022-08-01T07:59:56;22.20;99.90
15407;DHT22;7802;51.568;6.364;2022-08-01T08:02:25;22.40;99.90
15407;DHT22;7802;51.568;6.364;2022-08-01T08:04:54;22.60;99.90
15407;DHT22;7802;51.568;6.364;2022-08-01T08:07:22;22.80;99.90
15407;DHT22;7802;51.568;6.364;2022-08-01T08:09:50;23.20;99.90
15407;DHT22;7802;51.568;6.364;2022-08-01T08:12:18;23.40;99.90
15407;DHT22;7802;51.568;6.364;2022-08-01T08:14:56;23.80;99.90
15407;DHT22;7802;51.568;6.364;2022-08-01T08:17:26;23.70;99.90
15407;DHT22;7802;51.568;6.364;2022-08-01T08:20:03;23.50;99.90
15407;DHT22;7802;51.568;6.364;2022-08-01T08:22:36;23.70;99.90
15407;DHT22;7802;51.568;6.364;2022-08-01T08:25:05;23.90;99.90
15407;DHT22;7802;51.568;6.364;2022-08-01T08:27:34;24.20;99.90
15407;DHT22;7802;51.568;6.364;2022-08-01T08:30:05;24.40;99.90
15407;DHT22;7802;51.568;6.364;2022-08-01T08:32:37;24.40;99.90
15407;DHT22;7802;51.568;6.364;2022-08-01T08:35:06;24.40;99.90
15407;DHT22;7802;51.568;6.364;2022-08-01T08:37:38;24.50;99.90
15407;DHT22;7802;51.568;6.364;2022-08-01T08:40:14;24.70;99.90
15407;DHT22;7802;51.568;6.364;2022-08-01T08:42:44;24.70;99.90
15407;DHT22;7802;51.568;6.364;2022-08-01T08:45:13;24.70;99.90
15407;DHT22;7802;51.568;6.364;2022-08-01T08:47:43;24.90;99.90
15407;DHT22;7802;51.568;6.364;2022-08-01T08:50:15;25.10;99.90
15407;DHT22;7802;51.568;6.364;2022-08-01T08:52:44;25.30;99.90
15407;DHT22;7802;51.568;6.364;2022-08-01T08:55:16;25.60;99.90
15407;DHT22;7802;51.568;6.364;2022-08-01T08:57:45;26.00;99.90
15407;DHT22;7802;51.568;6.364;2022-08-01T09:00:15;26.00;99.90
15407;DHT22;7802;51.568;6.364;2022-08-01T09:02:46;26.20;99.90
15407;DHT22;7802;51.568;6.364;2022-08-01T09:05:16;26.60;99.90
15407;DHT22;7802;51.568;6.364;2022-08-01T09:08:06;26.10;99.90
15407;DHT22;7802;51.568;6.364;2022-08-01T09:10:34;26.00;99.90
15407;DHT22;7802;51.568;6.364;2022-08-01T09:13:08;26.40;99.90
15407;DHT22;7802;51.568;6.364;2022-08-01T09:15:39;25.70;99.90
15407;DHT22;7802;51.568;6.364;2022-08-01T09:18:10;25.50;99.90
15407;DHT22;7802;51.568;6.364;2022-08-01T09:21:08;25.40;99.90
15407;DHT22;7802;51.568;6.364;2022-08-01T09:23:38;25.20;99.90
15407;DHT22;7802;51.568;6.364;2022-08-01T09:26:27;24.70;99.90
15407;DHT22;7802;51.568;6.364;2022-08-01T09:28:57;25.90;99.90
15407;DHT22;7802;51.568;6.364;2022-08-01T09:31:27;24.20;99.90
15407;DHT22;7802;51.568;6.364;2022-08-01T09:34:05;24.10;99.90
15407;DHT22;7802;51.568;6.364;2022-08-01T09:36:47;24.00;99.90
15407;DHT22;7802;51.568;6.364;2022-08-01T09:39:22;24.10;99.90
15407;DHT22;7802;51.568;6.364;2022-08-01T09:41:51;24.20;99.90
15407;DHT22;7802;51.568;6.364;2022-08-01T09:44:37;24.40;99.90
15407;DHT22;7802;51.568;6.364;2022-08-01T09:47:10;24.20;99.90
15407;DHT22;7802;51.568;6.364;2022-08-01T09:49:44;24.30;99.90
15407;DHT22;7802;51.568;6.364;2022-08-01T09:52:19;24.20;99.90
15407;DHT22;7802;51.568;6.364;2022-08-01T09:54:56;24.40;99.90
15407;DHT22;7802;51.568;6.364;2022-08-01T09:57:26;24.70;99.90
15407;DHT22;7802;51.568;6.364;2022-08-01T09:59:56;25.10;99.90
15407;DHT22;7802;51.568;6.364;2022-08-01T10:02:30;25.30;99.90
15407;DHT22;7802;51.568;6.364;2022-08-01T10:05:03;25.40;99.90
15407;DHT22;7802;51.568;6.364;2022-08-01T10:07:35;25.80;99.90
15407;DHT22;7802;51.568;6.364;2022-08-01T10:10:12;26.30;99.90
15407;DHT22;7802;51.568;6.364;2022-08-01T10:12:41;26.40;99.90
15407;DHT22;7802;51.568;6.364;2022-08-01T10:15:15;26.50;99.90
15407;DHT22;7802;51.568;6.364;2022-08-01T10:17:50;26.30;99.90
15407;DHT22;7802;51.568;6.364;2022-08-01T10:20:27;26.00;99.90
15407;DHT22;7802;51.568;6.364;2022-08-01T10:22:59;25.70;99.90
15407;DHT22;7802;51.568;6.364;2022-08-01T10:25:35;26.00;99.90
15407;DHT22;7802;51.568;6.364;2022-08-01T10:28:14;26.30;99.90
15407;DHT22;7802;51.568;6.364;2022-08-01T10:30:50;26.10;99.90
15407;DHT22;7802;51.568;6.364;2022-08-01T10:33:23;25.70;99.90
15407;DHT22;7802;51.568;6.364;2022-08-01T10:36:13;25.40;99.90
15407;DHT22;7802;51.568;6.364;2022-08-01T10:38:42;25.60;99.90
15407;DHT22;7802;51.568;6.364;2022-08-01T10:41:12;25.40;99.90
15407;DHT22;7802;51.568;6.364;2022-08-01T10:43:42;25.30;99.90
15407;DHT22;7802;51.568;6.364;2022-08-01T10:46:13;25.30;99.90
15407;DHT22;7802;51.568;6.364;2022-08-01T10:48:47;25.30;99.90
15407;DHT22;7802;51.568;6.364;2022-08-01T10:51:19;25.10;99.90
15407;DHT22;7802;51.568;6.364;2022-08-01T10:54:10;25.10;99.90
15407;DHT22;7802;51.568;6.364;2022-08-01T10:56:40;25.20;99.90
15407;DHT22;7802;51.568;6.364;2022-08-01T10:59:14;25.50;99.90
15407;DHT22;7802;51.568;6.364;2022-08-01T11:01:59;26.00;99.90
15407;DHT22;7802;51.568;6.364;2022-08-01T11:04:44;25.70;99.90
15407;DHT22;7802;51.568;6.364;2022-08-01T11:07:21;26.00;99.90
15407;DHT22;7802;51.568;6.364;2022-08-01T11:10:04;26.20;99.90
15407;DHT22;7802;51.568;6.364;2022-08-01T11:12:42;26.10;99.90
15407;DHT22;7802;51.568;6.364;2022-08-01T11:15:19;26.00;99.90
15407;DHT22;7802;51.568;6.364;2022-08-01T11:18:31;25.70;99.90
15407;DHT22;7802;51.568;6.364;2022-08-01T11:21:03;25.40;99.90
15407;DHT22;7802;51.568;6.364;2022-08-01T11:23:53;25.00;99.90
15407;DHT22;7802;51.568;6.364;2022-08-01T11:26:23;25.00;99.90
15407;DHT22;7802;51.568;6.364;2022-08-01T11:29:16;25.10;99.90
15407;DHT22;7802;51.568;6.364;2022-08-01T11:31:48;25.50;99.90
15407;DHT22;7802;51.568;6.364;2022-08-01T11:34:18;25.40;99.90
15407;DHT22;7802;51.568;6.364;2022-08-01T11:36:47;25.40;99.90
15407;DHT22;7802;51.568;6.364;2022-08-01T11:39:26;25.40;99.90
15407;DHT22;7802;51.568;6.364;2022-08-01T11:42:18;25.20;99.90
15407;DHT22;7802;51.568;6.364;2022-08-01T11:44:50;25.20;99.90
15407;DHT22;7802;51.568;6.364;2022-08-01T11:47:45;25.20;99.90
15407;DHT22;7802;51.568;6.364;2022-08-01T11:50:34;25.30;99.90
15407;DHT22;7802;51.568;6.364;2022-08-01T11:53:06;25.50;99.90
15407;DHT22;7802;51.568;6.364;2022-08-01T11:55:45;25.40;99.90
15407;DHT22;7802;51.568;6.364;2022-08-01T11:58:21;25.60;99.90
15407;DHT22;7802;51.568;6.364;2022-08-01T12:00:57;25.60;99.90
15407;DHT22;7802;51.568;6.364;2022-08-01T12:03:27;25.40;99.90
15407;DHT22;7802;51.568;6.364;2022-08-01T12:06:00;25.00;99.90
15407;DHT22;7802;51.568;6.364;2022-08-01T12:08:30;24.60;99.90
15407;DHT22;7802;51.568;6.364;2022-08-01T12:11:02;24.60;99.90
15407;DHT22;7802;51.568;6.364;2022-08-01T12:13:39;24.70;99.90
15407;DHT22;7802;51.568;6.364;2022-08-01T12:16:09;24.60;99.90
15407;DHT22;7802;51.568;6.364;2022-08-01T12:18:38;24.60;99.90
15407;DHT22;7802;51.568;6.364;2022-08-01T12:21:07;24.80;99.90
15407;DHT22;7802;51.568;6.364;2022-08-01T12:23:35;25.00;99.90
15407;DHT22;7802;51.568;6.364;2022-08-01T12:26:05;25.10;99.90
15407;DHT22;7802;51.568;6.364;2022-08-01T12:28:39;25.20;99.90
15407;DHT22;7802;51.568;6.364;2022-08-01T12:31:07;25.30;99.90
15407;DHT22;7802;51.568;6.364;2022-08-01T12:33:38;25.20;99.90
15407;DHT22;7802;51.568;6.364;2022-08-01T12:36:07;24.70;99.90
15407;DHT22;7802;51.568;6.364;2022-08-01T12:38:40;24.40;99.90
15407;DHT22;7802;51.568;6.364;2022-08-01T12:41:12;24.30;99.90
15407;DHT22;7802;51.568;6.364;2022-08-01T12:43:41;24.40;99.90
15407;DHT22;7802;51.568;6.364;2022-08-01T12:46:10;24.50;99.90
15407;DHT22;7802;51.568;6.364;2022-08-01T12:48:43;24.70;99.90
15407;DHT22;7802;51.568;6.364;2022-08-01T12:51:11;24.70;99.90
15407;DHT22;7802;51.568;6.364;2022-08-01T12:53:39;27.30;99.90
15407;DHT22;7802;51.568;6.364;2022-08-01T12:56:08;24.50;99.90
15407;DHT22;7802;51.568;6.364;2022-08-01T12:58:51;24.50;99.90
15407;DHT22;7802;51.568;6.364;2022-08-01T13:01:26;24.30;99.90
15407;DHT22;7802;51.568;6.364;2022-08-01T13:03:59;24.20;99.90
15407;DHT22;7802;51.568;6.364;2022-08-01T13:06:28;24.80;99.90
15407;DHT22;7802;51.568;6.364;2022-08-01T13:09:05;24.60;99.90
15407;DHT22;7802;51.568;6.364;2022-08-01T13:11:33;24.30;99.90
15407;DHT22;7802;51.568;6.364;2022-08-01T13:14:03;24.00;99.90
15407;DHT22;7802;51.568;6.364;2022-08-01T13:16:31;24.00;99.90
15407;DHT22;7802;51.568;6.364;2022-08-01T13:19:20;24.00;99.90
15407;DHT22;7802;51.568;6.364;2022-08-01T13:21:55;24.10;99.90
15407;DHT22;7802;51.568;6.364;2022-08-01T13:24:25;24.30;99.90
15407;DHT22;7802;51.568;6.364;2022-08-01T13:26:55;24.30;99.90
15407;DHT22;7802;51.568;6.364;2022-08-01T13:29:31;24.30;99.90
15407;DHT22;7802;51.568;6.364;2022-08-01T13:32:11;24.40;99.90
15407;DHT22;7802;51.568;6.364;2022-08-01T13:35:02;24.50;99.90
15407;DHT22;7802;51.568;6.364;2022-08-01T13:37:32;24.40;99.90
15407;DHT22;7802;51.568;6.364;2022-08-01T13:40:00;24.20;99.90
15407;DHT22;7802;51.568;6.364;2022-08-01T13:42:31;24.20;99.90
15407;DHT22;7802;51.568;6.364;2022-08-01T13:45:00;24.10;99.90
15407;DHT22;7802;51.568;6.364;2022-08-01T13:47:30;24.00;99.90
15407;DHT22;7802;51.568;6.364;2022-08-01T13:49:58;24.00;99.90
15407;DHT22;7802;51.568;6.364;2022-08-01T13:52:30;24.00;99.90
15407;DHT22;7802;51.568;6.364;2022-08-01T13:54:58;24.00;99.90
15407;DHT22;7802;51.568;6.364;2022-08-01T13:57:27;24.00;99.90
15407;DHT22;7802;51.568;6.364;2022-08-01T14:00:07;24.30;99.90
15407;DHT22;7802;51.568;6.364;2022-08-01T14:02:39;24.30;99.90
15407;DHT22;7802;51.568;6.364;2022-08-01T14:05:07;24.20;99.90
15407;DHT22;7802;51.568;6.364;2022-08-01T14:07:35;24.20;99.90
15407;DHT22;7802;51.568;6.364;2022-08-01T14:10:04;24.20;99.90
15407;DHT22;7802;51.568;6.364;2022-08-01T14:12:46;24.20;99.90
15407;DHT22;7802;51.568;6.364;2022-08-01T14:15:16;24.30;99.90
15407;DHT22;7802;51.568;6.364;2022-08-01T14:18:05;24.20;99.90
15407;DHT22;7802;51.568;6.364;2022-08-01T14:20:36;23.90;99.90
15407;DHT22;7802;51.568;6.364;2022-08-01T14:23:05;24.00;99.90
15407;DHT22;7802;51.568;6.364;2022-08-01T14:25:35;24.20;99.90
15407;DHT22;7802;51.568;6.364;2022-08-01T14:28:24;24.30;99.90
15407;DHT22;7802;51.568;6.364;2022-08-01T14:30:56;24.50;99.90
15407;DHT22;7802;51.568;6.364;2022-08-01T14:33:24;24.70;99.90
15407;DHT22;7802;51.568;6.364;2022-08-01T14:35:53;24.90;99.90
15407;DHT22;7802;51.568;6.364;2022-08-01T14:38:41;25.00;99.90
15407;DHT22;7802;51.568;6.364;2022-08-01T14:41:12;24.90;99.90
15407;DHT22;7802;51.568;6.364;2022-08-01T14:43:42;24.80;99.90
15407;DHT22;7802;51.568;6.364;2022-08-01T14:46:12;24.80;99.90
15407;DHT22;7802;51.568;6.364;2022-08-01T14:48:40;24.80;99.90
15407;DHT22;7802;51.568;6.364;2022-08-01T14:51:09;24.80;99.90
15407;DHT22;7802;51.568;6.364;2022-08-01T14:53:37;24.80;99.90
15407;DHT22;7802;51.568;6.364;2022-08-01T14:56:12;24.70;99.90
15407;DHT22;7802;51.568;6.364;2022-08-01T14:58:40;24.60;99.90
15407;DHT22;7802;51.568;6.364;2022-08-01T15:01:09;24.60;99.90
15407;DHT22;7802;51.568;6.364;2022-08-01T15:03:38;24.60;99.90
15407;DHT22;7802;51.568;6.364;2022-08-01T15:06:07;24.50;99.90
15407;DHT22;7802;51.568;6.364;2022-08-01T15:08:37;24.40;99.90
15407;DHT22;7802;51.568;6.364;2022-08-01T15:11:06;24.30;99.90
15407;DHT22;7802;51.568;6.364;2022-08-01T15:13:35;24.30;99.90
15407;DHT22;7802;51.568;6.364;2022-08-01T15:16:08;24.30;99.90
15407;DHT22;7802;51.568;6.364;2022-08-01T15:18:39;24.20;99.90
15407;DHT22;7802;51.568;6.364;2022-08-01T15:21:08;24.20;99.90
15407;DHT22;7802;51.568;6.364;2022-08-01T15:23:50;24.00;99.90
15407;DHT22;7802;51.568;6.364;2022-08-01T15:26:19;23.90;99.90
15407;DHT22;7802;51.568;6.364;2022-08-01T15:28:47;23.70;99.90
15407;DHT22;7802;51.568;6.364;2022-08-01T15:31:15;23.70;99.90
15407;DHT22;7802;51.568;6.364;2022-08-01T15:33:45;23.60;99.90
15407;DHT22;7802;51.568;6.364;2022-08-01T15:36:13;23.70;99.90
15407;DHT22;7802;51.568;6.364;2022-08-01T15:38:42;24.30;99.90
15407;DHT22;7802;51.568;6.364;2022-08-01T15:41:10;24.70;99.90
15407;DHT22;7802;51.568;6.364;2022-08-01T15:43:39;23.70;99.90
15407;DHT22;7802;51.568;6.364;2022-08-01T15:46:11;23.80;99.90
15407;DHT22;7802;51.568;6.364;2022-08-01T15:48:39;24.00;99.90
15407;DHT22;7802;51.568;6.364;2022-08-01T15:51:09;24.00;99.90
15407;DHT22;7802;51.568;6.364;2022-08-01T15:53:37;24.20;99.90
15407;DHT22;7802;51.568;6.364;2022-08-01T15:56:06;24.20;99.90
15407;DHT22;7802;51.568;6.364;2022-08-01T15:58:34;24.20;99.90
15407;DHT22;7802;51.568;6.364;2022-08-01T16:01:02;24.10;99.90
15407;DHT22;7802;51.568;6.364;2022-08-01T16:03:31;24.10;99.90
15407;DHT22;7802;51.568;6.364;2022-08-01T16:05:59;24.10;99.90
15407;DHT22;7802;51.568;6.364;2022-08-01T16:08:29;24.00;99.90
15407;DHT22;7802;51.568;6.364;2022-08-01T16:11:00;24.00;99.90
15407;DHT22;7802;51.568;6.364;2022-08-01T16:13:28;24.00;99.90
15407;DHT22;7802;51.568;6.364;2022-08-01T16:15:57;24.10;99.90
15407;DHT22;7802;51.568;6.364;2022-08-01T16:18:26;24.10;99.90
15407;DHT22;7802;51.568;6.364;2022-08-01T16:20:54;24.00;99.90
15407;DHT22;7802;51.568;6.364;2022-08-01T16:23:24;24.00;99.90
15407;DHT22;7802;51.568;6.364;2022-08-01T16:25:54;23.90;99.90
15407;DHT22;7802;51.568;6.364;2022-08-01T16:28:23;23.90;99.90
15407;DHT22;7802;51.568;6.364;2022-08-01T16:30:51;23.80;99.90
15407;DHT22;7802;51.568;6.364;2022-08-01T16:33:39;23.60;99.90
15407;DHT22;7802;51.568;6.364;2022-08-01T16:36:21;23.80;99.90
15407;DHT22;7802;51.568;6.364;2022-08-01T16:38:51;23.70;99.90
15407;DHT22;7802;51.568;6.364;2022-08-01T16:41:20;23.70;99.90
15407;DHT22;7802;51.568;6.364;2022-08-01T16:43:49;23.60;99.90
15407;DHT22;7802;51.568;6.364;2022-08-01T16:46:21;23.60;99.90
15407;DHT22;7802;51.568;6.364;2022-08-01T16:48:50;23.60;99.90
15407;DHT22;7802;51.568;6.364;2022-08-01T16:51:19;23.60;99.90
15407;DHT22;7802;51.568;6.364;2022-08-01T16:53:47;23.70;99.90
15407;DHT22;7802;51.568;6.364;2022-08-01T16:56:15;25.50;99.90
15407;DHT22;7802;51.568;6.364;2022-08-01T16:58:45;23.70;99.90
15407;DHT22;7802;51.568;6.364;2022-08-01T17:01:13;23.80;99.90
15407;DHT22;7802;51.568;6.364;2022-08-01T17:04:04;23.90;99.90
15407;DHT22;7802;51.568;6.364;2022-08-01T17:06:32;23.90;99.90
15407;DHT22;7802;51.568;6.364;2022-08-01T17:09:00;23.80;99.90
15407;DHT22;7802;51.568;6.364;2022-08-01T17:11:30;23.50;99.90
15407;DHT22;7802;51.568;6.364;2022-08-01T17:14:00;23.60;99.90
15407;DHT22;7802;51.568;6.364;2022-08-01T17:16:28;23.40;99.90
15407;DHT22;7802;51.568;6.364;2022-08-01T17:18:56;23.40;99.90
15407;DHT22;7802;51.568;6.364;2022-08-01T17:21:24;23.30;99.90
15407;DHT22;7802;51.568;6.364;2022-08-01T17:23:54;23.30;99.90
15407;DHT22;7802;51.568;6.364;2022-08-01T17:26:22;23.20;99.90
15407;DHT22;7802;51.568;6.364;2022-08-01T17:28:50;23.20;99.90
15407;DHT22;7802;51.568;6.364;2022-08-01T17:31:20;23.00;99.90
15407;DHT22;7802;51.568;6.364;2022-08-01T17:33:48;23.00;99.90
15407;DHT22;7802;51.568;6.364;2022-08-01T17:36:21;23.00;99.90
15407;DHT22;7802;51.568;6.364;2022-08-01T17:38:49;22.90;99.90
15407;DHT22;7802;51.568;6.364;2022-08-01T17:41:18;22.80;99.90
15407;DHT22;7802;51.568;6.364;2022-08-01T17:43:46;23.30;99.90
15407;DHT22;7802;51.568;6.364;2022-08-01T17:46:14;22.70;99.90
15407;DHT22;7802;51.568;6.364;2022-08-01T17:48:44;22.60;99.90
15407;DHT22;7802;51.568;6.364;2022-08-01T17:51:13;22.50;99.90
15407;DHT22;7802;51.568;6.364;2022-08-01T17:53:48;22.40;99.90
15407;DHT22;7802;51.568;6.364;2022-08-01T17:56:24;22.30;99.90
15407;DHT22;7802;51.568;6.364;2022-08-01T17:58:53;22.30;99.90
15407;DHT22;7802;51.568;6.364;2022-08-01T18:01:22;22.10;99.90
15407;DHT22;7802;51.568;6.364;2022-08-01T18:03:55;22.00;99.90
15407;DHT22;7802;51.568;6.364;2022-08-01T18:06:24;21.90;99.90
15407;DHT22;7802;51.568;6.364;2022-08-01T18:08:54;21.80;99.90
15407;DHT22;7802;51.568;6.364;2022-08-01T18:11:27;21.70;99.90
15407;DHT22;7802;51.568;6.364;2022-08-01T18:14:03;22.80;99.90
15407;DHT22;7802;51.568;6.364;2022-08-01T18:16:32;21.60;99.90
15407;DHT22;7802;51.568;6.364;2022-08-01T18:19:04;21.60;99.90
15407;DHT22;7802;51.568;6.364;2022-08-01T18:21:32;22.20;99.90